Time;durP1;ratioP1;P1;durP2;ratioP2;P2;SDS_P1;SDS_P2;PMS_P1;PMS_P2;Temp;Humidity;BMP_temperature;BMP_pressure;BME280_temperature;BME280_humidity;BME280_pressure;Samples;Min_cycle;Max_cycle;Signal;HPM_P1;HPM_P2
2023/04/17 00:01:22;;;;;;;32.80;29.90;;;;;;;15.41;52.70;102486.25;4998220;28;20038;-85
2023/04/17 00:03:47;;;;;;;32.42;29.38;;;;;;;15.40;52.41;102476.44;5014779;28;20046;-81
2023/04/17 00:06:13;;;;;;;32.63;29.27;;;;;;;15.41;52.32;102475.38;5015731;28;20041;-77
2023/04/17 00:08:39;;;;;;;33.50;30.70;;;;;;;15.40;52.53;102476.44;4997835;28;20497;-81
2023/04/17 00:11:05;;;;;;;31.17;28.60;;;;;;;15.39;52.44;102474.75;5015586;28;20141;-81
2023/04/17 00:13:30;;;;;;;35.80;32.10;;;;;;;15.39;52.32;102474.75;5015509;28;20030;-81
2023/04/17 00:15:55;;;;;;;32.45;29.23;;;;;;;15.37;52.37;102474.97;5015264;28;20038;-83
2023/04/17 00:18:21;;;;;;;32.90;30.10;;;;;;;15.37;52.40;102480.44;5015154;28;20076;-84
2023/04/17 00:20:46;;;;;;;31.17;28.15;;;;;;;15.37;52.69;102480.44;5014214;28;20034;-82
2023/04/17 00:23:11;;;;;;;33.05;30.13;;;;;;;15.37;52.41;102488.59;5015200;28;20478;-83
2023/04/17 00:25:37;;;;;;;31.27;28.65;;;;;;;15.36;52.54;102487.78;5015382;28;20037;-82
2023/04/17 00:28:02;;;;;;;31.05;28.23;;;;;;;15.34;52.49;102479.00;5015316;28;20069;-82
2023/04/17 00:30:27;;;;;;;33.75;30.88;;;;;;;15.34;52.47;102483.63;4997673;28;20478;-81
2023/04/17 00:32:53;;;;;;;32.90;29.40;;;;;;;15.32;52.72;102478.44;5015465;28;20044;-81
2023/04/17 00:35:18;;;;;;;30.77;27.95;;;;;;;15.33;52.70;102477.34;5015032;28;20068;-81
2023/04/17 00:37:44;;;;;;;31.50;28.42;;;;;;;15.31;52.56;102465.88;5015075;28;20378;-80
2023/04/17 00:40:10;;;;;;;31.02;28.23;;;;;;;15.30;52.54;102461.50;5014951;28;20040;-82
2023/04/17 00:42:35;;;;;;;31.92;29.27;;;;;;;15.29;52.66;102467.97;4997850;28;20075;-81
2023/04/17 00:45:01;;;;;;;31.27;28.08;;;;;;;15.29;52.86;102464.44;5014943;28;20555;-80
2023/04/17 00:47:26;;;;;;;33.65;30.48;;;;;;;15.28;52.75;102463.59;5014909;28;20042;-81
2023/04/17 00:49:52;;;;;;;31.35;28.10;;;;;;;15.29;52.78;102462.53;5014806;28;20029;-82
2023/04/17 00:52:27;;;;;;;31.55;28.77;;;;;;;15.29;52.86;102464.44;5014678;28;20029;-81
2023/04/17 00:54:53;;;;;;;29.60;26.90;;;;;;;15.28;52.66;102460.06;5014695;28;20026;-81
2023/04/17 00:57:19;;;;;;;30.30;27.38;;;;;;;15.28;52.89;102457.34;5015218;28;20040;-81
2023/04/17 00:59:45;;;;;;;32.30;29.52;;;;;;;15.27;52.74;102458.38;5014973;28;20042;-80
2023/04/17 01:02:11;;;;;;;27.58;25.17;;;;;;;15.26;52.49;102454.00;5015585;28;20052;-81
2023/04/17 01:04:37;;;;;;;32.22;29.17;;;;;;;15.26;52.35;102459.47;4997757;28;20464;-82
2023/04/17 01:07:02;;;;;;;30.58;27.98;;;;;;;15.26;52.31;102460.28;4997187;28;20113;-81
2023/04/17 01:09:28;;;;;;;33.47;30.55;;;;;;;15.25;52.72;102455.91;5014921;28;20505;-82
2023/04/17 01:11:53;;;;;;;30.33;27.67;;;;;;;15.23;52.79;102449.88;5015478;28;20042;-82
2023/04/17 01:14:19;;;;;;;33.33;30.05;;;;;;;15.23;52.61;102463.47;4997900;28;20085;-77
2023/04/17 01:16:44;;;;;;;31.33;28.55;;;;;;;15.23;52.93;102455.31;5014552;28;20029;-82
2023/04/17 01:19:13;;;;;;;32.83;28.45;;;;;;;15.23;52.77;102462.66;5014383;28;20115;-82
2023/04/17 01:21:39;;;;;;;30.10;27.42;;;;;;;15.23;52.77;102462.66;5014000;28;20097;-82
2023/04/17 01:24:05;;;;;;;28.60;26.05;;;;;;;15.22;52.43;102459.09;5014161;28;20038;-82
2023/04/17 01:26:31;;;;;;;27.75;25.65;;;;;;;15.22;52.91;102460.97;4996605;28;20034;-81
2023/04/17 01:28:58;;;;;;;32.38;29.17;;;;;;;15.21;52.59;102465.59;5014345;28;20040;-81
2023/04/17 01:31:25;;;;;;;29.58;26.77;;;;;;;15.21;52.86;102457.44;5014564;28;20046;-81
2023/04/17 01:33:51;;;;;;;26.48;24.52;;;;;;;15.21;52.56;102459.31;5014516;28;20037;-81
2023/04/17 01:36:17;;;;;;;30.52;27.83;;;;;;;15.20;52.29;102458.50;5014033;28;20038;-81
2023/04/17 01:38:43;;;;;;;31.48;28.23;;;;;;;15.20;52.44;102463.13;5015015;28;20064;-82
2023/04/17 01:41:09;;;;;;;31.15;28.42;;;;;;;15.19;52.73;102458.72;5014284;28;20030;-82
2023/04/17 01:43:43;;;;;;;34.22;30.33;;;;;;;15.19;52.60;102466.88;5014001;28;20045;-81
2023/04/17 01:46:08;;;;;;;24.02;22.73;;;;;;;15.16;52.60;102470.91;5014744;28;20029;-82
2023/04/17 01:48:34;;;;;;;33.67;30.30;;;;;;;15.16;52.60;102462.75;5014148;28;20063;-82
2023/04/17 01:51:00;;;;;;;30.85;27.90;;;;;;;15.17;52.56;102469.00;5013700;28;20125;-82
2023/04/17 01:53:26;;;;;;;33.10;29.83;;;;;;;15.15;52.68;102472.81;5013777;28;20155;-81
2023/04/17 01:55:51;;;;;;;29.52;26.83;;;;;;;15.15;52.72;102470.06;5013895;28;20124;-82
2023/04/17 01:58:17;;;;;;;29.33;26.42;;;;;;;15.15;52.52;102470.06;5013716;28;20034;-82
2023/04/17 02:00:45;;;;;;;29.92;27.15;;;;;;;15.17;52.47;102477.16;5014217;28;20045;-80
2023/04/17 02:03:10;;;;;;;27.95;25.77;;;;;;;15.15;52.63;102475.53;5014741;28;20077;-80
2023/04/17 02:05:35;;;;;;;29.10;26.65;;;;;;;15.15;52.74;102477.41;4996936;28;20497;-81
2023/04/17 02:08:01;;;;;;;30.48;27.70;;;;;;;15.14;52.79;102473.03;5014110;28;20038;-81
2023/04/17 02:10:26;;;;;;;23.17;21.77;;;;;;;15.12;52.45;102481.44;5014182;28;20136;-81
2023/04/17 02:12:52;;;;;;;30.77;27.63;;;;;;;15.12;52.70;102476.00;4996798;28;20117;-81
2023/04/17 02:15:17;;;;;;;30.60;27.63;;;;;;;15.13;52.73;102471.38;5014043;28;20488;-84
2023/04/17 02:17:43;;;;;;;30.33;27.55;;;;;;;15.13;52.50;102479.53;5013858;28;20125;-81
2023/04/17 02:20:09;;;;;;;31.02;27.77;;;;;;;15.12;52.66;102472.44;5013683;28;20092;-81
2023/04/17 02:22:34;;;;;;;28.42;26.15;;;;;;;15.12;52.50;102472.44;4996542;28;20044;-83
2023/04/17 02:25:00;;;;;;;29.80;27.02;;;;;;;15.11;52.80;102468.03;5013669;28;20468;-83
2023/04/17 02:27:25;;;;;;;29.23;26.38;;;;;;;15.10;52.75;102472.66;4997372;28;20034;-75
2023/04/17 02:29:51;;;;;;;26.95;24.42;;;;;;;15.10;52.60;102471.84;5017473;28;20037;-81
2023/04/17 02:32:16;;;;;;;28.67;26.15;;;;;;;15.10;52.53;102466.41;5017619;28;20034;-82
2023/04/17 02:34:42;;;;;;;30.20;27.42;;;;;;;15.07;52.67;102470.41;5017401;28;20029;-83
2023/04/17 02:37:07;;;;;;;31.98;28.55;;;;;;;15.09;52.40;102470.16;5017470;28;20030;-81
2023/04/17 02:39:34;;;;;;;36.28;31.23;;;;;;;15.08;52.54;102468.50;4999858;28;20533;-81
2023/04/17 02:42:00;;;;;;;24.13;22.45;;;;;;;15.07;52.52;102464.16;5016723;28;20385;-81
2023/04/17 02:44:26;;;;;;;31.13;28.38;;;;;;;15.07;52.89;102458.69;5017569;28;20030;-80
2023/04/17 02:46:51;;;;;;;28.65;25.42;;;;;;;15.06;52.77;102462.47;5017591;28;20080;-81
2023/04/17 02:49:17;;;;;;;30.10;27.02;;;;;;;15.06;52.49;102457.84;5017081;28;20037;-83
2023/04/17 02:51:42;;;;;;;31.05;28.08;;;;;;;15.07;52.75;102464.16;5016972;28;20030;-82
2023/04/17 02:54:07;;;;;;;31.75;28.67;;;;;;;15.08;52.53;102457.63;5017046;28;20038;-82
2023/04/17 02:56:33;;;;;;;29.88;27.20;;;;;;;15.06;52.46;102457.84;5016929;28;20058;-82
2023/04/17 02:58:58;;;;;;;28.63;26.35;;;;;;;15.05;52.65;102458.91;5016849;28;20033;-83
2023/04/17 03:01:23;;;;;;;29.10;26.30;;;;;;;15.05;52.77;102458.09;5016877;28;20427;-83
2023/04/17 03:03:51;;;;;;;29.17;26.50;;;;;;;15.04;52.73;102464.59;5016998;28;20029;-82
2023/04/17 03:06:16;;;;;;;28.92;26.33;;;;;;;15.04;52.50;102465.41;5016757;28;20169;-82
2023/04/17 03:08:42;;;;;;;28.23;25.67;;;;;;;15.04;52.71;102468.13;4999051;28;20128;-82
2023/04/17 03:11:07;;;;;;;31.23;27.85;;;;;;;15.03;52.49;102466.47;5016737;28;20116;-83
2023/04/17 03:13:35;;;;;;;29.65;26.67;;;;;;;15.02;52.37;102469.41;4999122;28;20034;-83
2023/04/17 03:16:00;;;;;;;28.23;25.73;;;;;;;15.02;52.31;102475.72;5016519;28;20034;-83
2023/04/17 03:18:26;;;;;;;27.73;25.23;;;;;;;15.01;52.72;102479.47;5017184;28;20124;-82
2023/04/17 03:20:51;;;;;;;29.98;27.02;;;;;;;15.01;52.50;102476.75;4999186;28;20481;-83
2023/04/17 03:23:17;;;;;;;29.42;26.67;;;;;;;15.00;52.64;102480.56;5016388;28;20037;-82
2023/04/17 03:25:42;;;;;;;28.35;26.20;;;;;;;14.99;52.62;102473.44;5016119;28;20038;-82
2023/04/17 03:28:08;;;;;;;25.63;23.65;;;;;;;15.00;52.65;102475.09;5016574;28;20466;-83
2023/04/17 03:30:33;;;;;;;26.33;24.10;;;;;;;15.00;52.72;102469.66;4999158;28;20359;-81
2023/04/17 03:32:59;;;;;;;27.58;25.30;;;;;;;15.00;52.35;102468.84;5017728;28;20073;-80
2023/04/17 03:35:24;;;;;;;27.20;24.85;;;;;;;14.99;52.80;102472.59;5016364;28;20037;-80
2023/04/17 03:37:50;;;;;;;30.77;28.02;;;;;;;14.98;52.63;102469.06;5016039;28;20022;-81
2023/04/17 03:40:15;;;;;;;30.85;27.95;;;;;;;14.98;52.75;102473.69;5015237;28;20458;-80
2023/04/17 03:42:40;;;;;;;29.58;26.60;;;;;;;14.98;52.75;102471.78;5016145;28;20046;-78
2023/04/17 03:45:07;;;;;;;28.83;26.17;;;;;;;14.97;52.53;102470.13;4998597;28;20042;-80
2023/04/17 03:47:32;;;;;;;22.70;21.45;;;;;;;14.96;52.82;102470.34;5016001;28;20029;-80
2023/04/17 03:49:57;;;;;;;25.15;23.40;;;;;;;14.92;52.71;102470.00;5016196;28;20164;-81
2023/04/17 03:52:23;;;;;;;30.23;27.40;;;;;;;14.95;52.60;102472.25;4998475;28;20052;-81
2023/04/17 03:54:48;;;;;;;27.73;25.60;;;;;;;14.92;52.50;102465.38;5015765;28;20076;-81
2023/04/17 03:57:14;;;;;;;26.85;24.65;;;;;;;14.93;52.72;102463.47;5015843;28;20041;-80
2023/04/17 03:59:39;;;;;;;28.17;25.55;;;;;;;14.94;52.57;102478.72;5015778;28;20038;-80
2023/04/17 04:02:05;;;;;;;24.30;22.58;;;;;;;14.92;52.58;102478.97;5015774;28;20108;-81
2023/04/17 04:04:30;;;;;;;28.60;26.40;;;;;;;14.91;52.73;102479.19;5015752;28;20032;-81
2023/04/17 04:07:00;;;;;;;28.80;26.50;;;;;;;14.90;52.59;102475.66;5015621;28;20030;-80
2023/04/17 04:09:26;;;;;;;28.00;25.52;;;;;;;14.90;52.68;102478.38;5016284;28;20053;-81
2023/04/17 04:11:52;;;;;;;31.58;28.35;;;;;;;14.91;52.56;102468.31;5015950;28;20061;-81
2023/04/17 04:14:17;;;;;;;27.30;24.73;;;;;;;14.91;52.54;102476.47;5015450;28;20034;-81
2023/04/17 04:16:43;;;;;;;32.42;29.20;;;;;;;14.88;52.77;102469.59;5015222;28;20056;-81
2023/04/17 04:19:08;;;;;;;28.15;25.80;;;;;;;14.89;52.52;102476.72;4998064;28;20033;-80
2023/04/17 04:21:34;;;;;;;27.92;25.67;;;;;;;14.89;52.83;102465.84;5015411;28;20034;-81
2023/04/17 04:23:59;;;;;;;27.20;24.80;;;;;;;14.89;52.50;102468.56;5015240;28;20061;-80
2023/04/17 04:26:26;;;;;;;27.88;25.45;;;;;;;14.89;52.62;102475.88;5015447;28;20057;-83
2023/04/17 04:28:52;;;;;;;29.17;25.83;;;;;;;14.87;52.74;102478.84;5013927;28;20034;-82
2023/04/17 04:31:18;;;;;;;28.13;25.80;;;;;;;14.88;52.58;102468.78;5015473;28;20030;-82
2023/04/17 04:33:47;;;;;;;28.60;25.83;;;;;;;14.87;52.26;102473.41;5015477;28;20030;-82
2023/04/17 04:36:19;;;;;;;28.27;25.67;;;;;;;14.87;52.62;102478.00;5015498;28;20034;-82
2023/04/17 04:38:45;;;;;;;28.95;26.63;;;;;;;14.86;52.39;102476.34;5015577;28;20041;-83
2023/04/17 04:41:11;;;;;;;26.88;24.80;;;;;;;14.85;52.48;102480.94;5015027;28;20038;-83
2023/04/17 04:43:36;;;;;;;28.98;26.42;;;;;;;14.86;52.51;102484.50;5014981;28;20034;-82
2023/04/17 04:46:02;;;;;;;32.10;28.80;;;;;;;14.86;52.65;102484.50;5014935;28;20389;-84
2023/04/17 04:48:28;;;;;;;26.02;24.13;;;;;;;14.86;52.58;102484.50;5014903;28;20045;-84
2023/04/17 04:50:54;;;;;;;31.60;28.27;;;;;;;14.86;52.70;102489.94;4997320;28;20061;-84
2023/04/17 04:53:19;;;;;;;25.38;23.55;;;;;;;14.84;52.64;102497.50;5014852;28;20462;-84
2023/04/17 04:55:45;;;;;;;28.90;26.50;;;;;;;14.83;52.71;102488.50;4997357;28;20052;-85
2023/04/17 04:58:10;;;;;;;31.48;28.70;;;;;;;14.84;52.63;102492.91;5014566;28;20479;-83
2023/04/17 05:00:36;;;;;;;28.10;25.60;;;;;;;14.84;52.45;102489.31;5014736;28;20073;-83
2023/04/17 05:03:01;;;;;;;30.02;26.90;;;;;;;14.84;52.58;102500.22;5014521;28;20037;-84
2023/04/17 05:05:27;;;;;;;29.00;26.20;;;;;;;14.83;52.27;102499.38;5015156;28;20057;-83
2023/04/17 05:07:53;;;;;;;33.05;29.73;;;;;;;14.82;52.69;102495.03;5014725;28;20030;-84
2023/04/17 05:10:20;;;;;;;30.95;27.65;;;;;;;14.82;52.19;102500.47;5014712;28;20046;-83
2023/04/17 05:12:45;;;;;;;28.75;26.05;;;;;;;14.82;52.30;102496.91;5014193;28;20092;-85
2023/04/17 05:15:11;;;;;;;25.65;23.50;;;;;;;14.82;52.53;102502.34;5014482;28;20494;-86
2023/04/17 05:17:37;;;;;;;26.95;24.80;;;;;;;14.80;52.29;102497.13;5014273;28;20470;-85
2023/04/17 05:20:06;;;;;;;26.30;23.80;;;;;;;14.80;52.36;102496.31;5015529;28;20474;-83
2023/04/17 05:22:31;;;;;;;28.45;25.63;;;;;;;14.80;52.37;102502.56;5015272;28;20109;-84
2023/04/17 05:24:57;;;;;;;29.98;27.02;;;;;;;14.80;52.37;102510.72;5014217;28;20065;-84
2023/04/17 05:27:25;;;;;;;28.38;25.80;;;;;;;14.80;52.65;102512.63;4997425;28;20061;-85
2023/04/17 05:29:51;;;;;;;32.55;26.38;;;;;;;14.79;52.60;102513.66;5014169;28;20034;-84
2023/04/17 05:32:16;;;;;;;30.40;27.65;;;;;;;14.79;52.62;102508.22;5014565;28;20036;-85
2023/04/17 05:34:41;;;;;;;29.05;26.10;;;;;;;14.78;52.85;102514.75;4996329;28;20096;-79
2023/04/17 05:37:07;;;;;;;29.45;26.70;;;;;;;14.78;52.40;102518.28;5013968;28;20037;-84
2023/04/17 05:39:33;;;;;;;29.27;26.58;;;;;;;14.78;52.32;102522.91;5013381;28;20062;-85
2023/04/17 05:41:58;;;;;;;29.77;26.85;;;;;;;14.77;52.62;102515.81;5015005;28;20041;-85
2023/04/17 05:44:23;;;;;;;27.52;24.98;;;;;;;14.76;52.63;102514.94;4996219;28;20033;-84
2023/04/17 05:46:49;;;;;;;32.47;29.30;;;;;;;14.76;52.45;102519.56;5013863;28;20125;-83
2023/04/17 05:49:14;;;;;;;29.17;26.42;;;;;;;14.76;52.63;102519.56;5013970;28;20034;-86
2023/04/17 05:51:40;;;;;;;29.17;26.40;;;;;;;14.75;52.48;102523.34;5013872;28;20032;-85
2023/04/17 05:54:05;;;;;;;28.88;25.38;;;;;;;14.74;52.53;102519.81;5013779;28;20466;-86
2023/04/17 05:56:30;;;;;;;28.17;25.60;;;;;;;14.74;52.76;102530.69;4996462;28;20113;-81
2023/04/17 05:58:56;;;;;;;29.40;26.77;;;;;;;14.74;52.81;102521.69;4995841;28;20034;-83
2023/04/17 06:01:21;;;;;;;29.67;26.98;;;;;;;14.73;52.50;102529.00;5013564;28;20049;-84
2023/04/17 06:03:47;;;;;;;27.60;25.52;;;;;;;14.73;52.70;102531.75;5013594;28;20454;-83
2023/04/17 06:06:13;;;;;;;29.02;26.45;;;;;;;14.71;52.58;102531.13;5014299;28;20129;-83
2023/04/17 06:08:38;;;;;;;32.17;28.80;;;;;;;14.70;52.75;102535.75;5013603;28;20038;-86
2023/04/17 06:11:04;;;;;;;27.33;24.75;;;;;;;14.70;52.43;102535.75;5014796;28;20057;-86
2023/04/17 06:13:29;;;;;;;30.80;27.48;;;;;;;14.70;52.40;102533.03;5013926;28;20389;-84
2023/04/17 06:15:55;;;;;;;31.25;27.92;;;;;;;14.71;52.52;102545.56;4996455;28;20038;-83
2023/04/17 06:18:20;;;;;;;29.92;27.00;;;;;;;14.71;52.58;102542.84;5013941;28;20458;-83
2023/04/17 06:20:46;;;;;;;28.08;25.77;;;;;;;14.71;52.49;102547.44;5013418;28;20462;-82
2023/04/17 06:23:11;;;;;;;26.48;24.77;;;;;;;14.71;52.56;102556.44;5013585;28;20037;-88
2023/04/17 06:25:37;;;;;;;27.20;24.77;;;;;;;14.69;52.77;102553.13;5014151;28;20022;-85
2023/04/17 06:28:02;;;;;;;33.60;30.05;;;;;;;14.70;52.48;102556.69;5013626;28;20187;-82
2023/04/17 06:30:28;;;;;;;29.35;26.45;;;;;;;14.70;52.57;102560.22;5014118;28;20026;-85
2023/04/17 06:32:53;;;;;;;32.25;29.00;;;;;;;14.69;52.54;102553.13;5013509;28;20054;-87
2023/04/17 06:35:19;;;;;;;27.52;25.20;;;;;;;14.69;52.57;102555.84;5013505;28;20045;-84
2023/04/17 06:37:44;;;;;;;29.65;27.13;;;;;;;14.68;52.52;102559.59;5013702;28;20026;-85
2023/04/17 06:40:12;;;;;;;27.67;24.98;;;;;;;14.69;52.60;102558.56;4995963;28;20473;-86
2023/04/17 06:42:38;;;;;;;26.38;23.98;;;;;;;14.68;52.42;102564.22;5013511;28;20041;-83
2023/04/17 06:45:04;;;;;;;27.88;25.45;;;;;;;14.67;52.52;102555.25;5013418;28;20037;-84
2023/04/17 06:47:30;;;;;;;28.20;25.70;;;;;;;14.67;52.45;102560.69;4996846;28;20038;-84
2023/04/17 06:49:56;;;;;;;35.03;30.95;;;;;;;14.67;52.69;102552.53;5013990;28;20026;-86
2023/04/17 06:52:22;;;;;;;31.60;28.45;;;;;;;14.67;52.63;102566.13;5013421;28;20480;-85
2023/04/17 06:54:48;;;;;;;24.83;23.13;;;;;;;14.67;52.46;102568.00;4996090;28;20057;-85
2023/04/17 06:57:13;;;;;;;26.73;24.42;;;;;;;14.65;52.64;102565.50;4995854;28;20129;-85
2023/04/17 06:59:39;;;;;;;26.30;23.90;;;;;;;14.66;52.72;102575.31;5013283;28;20041;-87
2023/04/17 07:02:04;;;;;;;28.75;26.17;;;;;;;14.66;52.67;102574.50;5013221;28;20095;-82
2023/04/17 07:04:30;;;;;;;29.55;26.60;;;;;;;14.65;52.69;102565.50;5013268;28;20117;-85
2023/04/17 07:06:56;;;;;;;25.73;23.73;;;;;;;14.65;52.51;102570.13;5013859;28;20042;-84
2023/04/17 07:09:21;;;;;;;26.48;24.17;;;;;;;14.65;52.43;102581.81;5017401;28;20088;-84
2023/04/17 07:11:46;;;;;;;29.52;26.80;;;;;;;14.65;52.34;102576.38;5015073;28;20034;-84
2023/04/17 07:14:12;;;;;;;29.98;26.98;;;;;;;14.65;52.57;102587.25;5002955;28;20080;-85
2023/04/17 07:16:37;;;;;;;29.52;26.50;;;;;;;14.65;52.64;102584.53;5024873;28;20030;-85
2023/04/17 07:19:03;;;;;;;28.00;25.65;;;;;;;14.65;52.72;102587.25;5026876;28;20067;-83
2023/04/17 07:21:28;;;;;;;29.38;26.67;;;;;;;14.64;52.42;102585.63;5009505;28;20029;-83
2023/04/17 07:23:53;;;;;;;29.20;26.48;;;;;;;14.65;52.68;102589.16;5024427;28;20117;-83
2023/04/17 07:26:19;;;;;;;24.42;22.67;;;;;;;14.65;52.55;102597.31;5017760;28;20038;-87
2023/04/17 07:28:44;;;;;;;30.55;27.58;;;;;;;14.64;52.54;102585.63;5016774;28;20450;-88
2023/04/17 07:31:10;;;;;;;34.65;30.45;;;;;;;14.66;52.70;102593.53;5016632;28;20117;-84
2023/04/17 07:33:36;;;;;;;29.50;26.67;;;;;;;14.66;52.63;102598.97;5016936;28;20034;-83
2023/04/17 07:36:03;;;;;;;31.63;28.63;;;;;;;14.66;52.35;102607.13;5017564;28;20041;-85
2023/04/17 07:38:30;;;;;;;30.80;27.88;;;;;;;14.66;52.35;102601.69;4999493;28;20057;-86
2023/04/17 07:40:56;;;;;;;30.58;27.42;;;;;;;14.65;52.37;102603.59;5016335;28;20037;-84
2023/04/17 07:43:21;;;;;;;30.60;27.70;;;;;;;14.65;52.67;102605.47;5016228;28;20034;-83
2023/04/17 07:45:47;;;;;;;28.65;26.05;;;;;;;14.65;52.32;102610.91;5015997;28;20036;-84
2023/04/17 07:48:13;;;;;;;25.80;23.63;;;;;;;14.64;52.66;102606.50;5015956;28;20037;-83
2023/04/17 07:50:38;;;;;;;30.70;27.48;;;;;;;14.62;52.81;102600.50;5016330;28;20034;-83
2023/04/17 07:53:04;;;;;;;30.48;28.00;;;;;;;14.63;52.49;102599.44;5015235;28;20389;-85
2023/04/17 07:55:29;;;;;;;31.58;28.23;;;;;;;14.63;52.27;102605.69;5015766;28;20034;-84
2023/04/17 07:57:55;;;;;;;29.35;26.77;;;;;;;14.63;52.43;102602.97;5015934;28;20036;-80
2023/04/17 08:00:20;;;;;;;27.35;25.08;;;;;;;14.63;52.49;102602.16;5016099;28;20042;-83
2023/04/17 08:02:46;;;;;;;30.52;27.45;;;;;;;14.63;52.57;102611.13;5015703;28;20034;-83
2023/04/17 08:05:11;;;;;;;32.80;29.38;;;;;;;14.63;52.60;102611.13;5015439;28;20045;-82
2023/04/17 08:07:37;;;;;;;27.05;24.38;;;;;;;14.63;52.78;102608.41;4997965;28;20042;-82
2023/04/17 08:10:03;;;;;;;27.75;25.02;;;;;;;14.63;52.69;102607.59;5015491;28;20405;-84
2023/04/17 08:12:29;;;;;;;29.10;26.40;;;;;;;14.63;52.60;102621.19;5015328;28;20080;-87
2023/04/17 08:14:54;;;;;;;31.67;28.25;;;;;;;14.62;52.73;102617.63;5015954;28;20046;-85
2023/04/17 08:17:22;;;;;;;31.23;28.25;;;;;;;14.61;52.85;102618.69;5015403;28;20466;-83
2023/04/17 08:19:56;;;;;;;30.10;27.20;;;;;;;14.63;52.78;102613.84;5015743;28;20493;-85
2023/04/17 08:22:23;;;;;;;30.15;27.48;;;;;;;14.62;52.71;102623.06;5016083;28;20084;-85
2023/04/17 08:24:49;;;;;;;30.60;27.55;;;;;;;14.64;52.77;102611.97;5014742;28;20455;-83
2023/04/17 08:27:15;;;;;;;34.60;30.95;;;;;;;14.63;52.73;102613.03;4997558;28;20038;-82
2023/04/17 08:29:42;;;;;;;31.40;27.20;;;;;;;14.63;52.70;102619.28;5015658;28;20454;-84
2023/04/17 08:32:07;;;;;;;26.55;24.52;;;;;;;14.61;52.72;102618.69;5014930;28;20044;-88
2023/04/17 08:34:34;;;;;;;30.45;27.55;;;;;;;14.62;52.77;102623.06;5015149;28;20105;-84
2023/04/17 08:37:00;;;;;;;29.95;26.92;;;;;;;14.63;52.87;102618.47;5015177;28;20038;-84
2023/04/17 08:39:26;;;;;;;29.38;26.48;;;;;;;14.63;52.85;102613.03;5015156;28;20038;-89
2023/04/17 08:41:59;;;;;;;32.55;29.40;;;;;;;14.63;52.45;102611.13;5015046;28;20030;-81
2023/04/17 08:44:26;;;;;;;33.83;29.67;;;;;;;14.61;52.75;102609.69;5015796;28;20041;-83
2023/04/17 08:46:54;;;;;;;33.30;29.45;;;;;;;14.63;52.54;102610.31;5014891;28;20444;-84
2023/04/17 08:49:20;;;;;;;37.03;30.30;;;;;;;14.63;52.86;102616.56;5014564;28;20430;-86
2023/04/17 08:51:46;;;;;;;26.58;24.23;;;;;;;14.63;52.55;102613.84;5015123;28;20054;-85
2023/04/17 08:54:11;;;;;;;37.90;31.60;;;;;;;14.62;52.89;102614.91;5014631;28;20061;-84
2023/04/17 08:56:36;;;;;;;32.55;29.08;;;;;;;14.62;52.46;102620.34;5002381;28;20347;-87
2023/04/17 08:59:03;;;;;;;34.35;30.75;;;;;;;14.63;52.55;102622.00;5000150;28;20508;-83
2023/04/17 09:01:28;;;;;;;27.65;25.52;;;;;;;14.64;52.62;102618.25;5015062;28;20061;-83
2023/04/17 09:03:55;;;;;;;32.47;29.35;;;;;;;14.64;52.44;102626.41;5014933;28;20057;-85
2023/04/17 09:06:21;;;;;;;31.15;28.10;;;;;;;14.63;52.65;102632.06;5014594;28;20030;-84
2023/04/17 09:08:58;;;;;;;29.98;26.88;;;;;;;14.63;52.77;102632.06;5014413;28;20041;-84
2023/04/17 09:11:24;;;;;;;29.88;27.20;;;;;;;14.63;52.62;102632.88;5014463;28;20181;-88
2023/04/17 09:13:50;;;;;;;32.22;28.30;;;;;;;14.65;52.69;102636.22;5014363;28;20077;-84
2023/04/17 09:16:16;;;;;;;34.78;31.15;;;;;;;14.64;52.80;102631.84;5014941;28;20068;-84
2023/04/17 09:18:42;;;;;;;24.48;22.58;;;;;;;14.65;52.85;102633.50;5014564;28;20037;-85
2023/04/17 09:21:08;;;;;;;33.42;29.80;;;;;;;14.65;53.11;102632.69;5014024;28;20065;-84
2023/04/17 09:23:55;;;;;;;29.95;27.13;;;;;;;14.65;52.70;102640.84;5012940;28;20489;-81
2023/04/17 09:26:22;;;;;;;31.30;28.15;;;;;;;14.64;52.71;102634.56;5014005;28;20041;-81
2023/04/17 09:29:09;;;;;;;31.85;28.73;;;;;;;14.64;52.88;102633.72;5014074;28;20032;-82
2023/04/17 09:31:36;;;;;;;24.25;22.42;;;;;;;14.64;52.79;102640.00;5014700;28;20119;-81
2023/04/17 09:34:02;;;;;;;32.28;27.30;;;;;;;14.65;52.98;102641.66;5014019;28;20033;-84
2023/04/17 09:36:30;;;;;;;30.27;27.92;;;;;;;14.66;52.68;102629.72;5012927;28;20544;-82
2023/04/17 09:38:59;;;;;;;29.52;26.60;;;;;;;14.68;52.84;102638.50;5013807;28;20029;-84
2023/04/17 09:41:26;;;;;;;29.30;26.70;;;;;;;14.70;53.00;102635.56;5013838;28;20057;-81
2023/04/17 09:43:54;;;;;;;25.30;23.63;;;;;;;14.69;52.72;102631.16;5013896;28;20030;-82
2023/04/17 09:46:40;;;;;;;37.10;33.33;;;;;;;14.69;52.74;102633.88;5013448;28;20088;-82
2023/04/17 09:49:14;;;;;;;26.92;24.58;;;;;;;14.70;53.03;102627.41;5014220;28;20022;-83
2023/04/17 09:51:40;;;;;;;32.85;29.60;;;;;;;14.70;52.88;102627.41;5013693;28;20105;-83
2023/04/17 09:54:10;;;;;;;32.53;29.15;;;;;;;14.73;52.90;102624.22;5013811;28;20034;-84
2023/04/17 09:56:36;;;;;;;28.05;25.50;;;;;;;14.74;52.70;102625.91;5013787;28;20041;-83
2023/04/17 09:59:04;;;;;;;26.52;24.13;;;;;;;14.76;52.63;102628.38;5014321;28;20034;-85
2023/04/17 10:01:31;;;;;;;31.27;28.27;;;;;;;14.77;52.80;102625.44;5013786;28;20088;-83
2023/04/17 10:03:58;;;;;;;32.50;29.02;;;;;;;14.78;53.15;102621.66;5013850;28;20045;-83
2023/04/17 10:06:25;;;;;;;31.30;28.13;;;;;;;14.80;53.08;102626.88;5013483;28;20419;-82
2023/04/17 10:08:51;;;;;;;34.55;31.13;;;;;;;14.81;52.96;102626.63;5013420;28;20109;-79
2023/04/17 10:11:18;;;;;;;33.63;30.08;;;;;;;14.83;52.88;102619.09;5013198;28;20077;-86
2023/04/17 10:13:48;;;;;;;30.65;27.80;;;;;;;14.85;52.92;102629.75;5013808;28;20107;-84
2023/04/17 10:16:13;;;;;;;32.33;28.92;;;;;;;14.86;52.90;102620.53;5013450;28;20022;-85
2023/04/17 10:18:39;;;;;;;26.75;24.55;;;;;;;14.86;52.70;102628.69;4996031;28;20119;-84
2023/04/17 10:21:22;;;;;;;33.22;30.05;;;;;;;14.88;52.83;102621.97;5014153;28;20034;-82
2023/04/17 10:23:48;;;;;;;32.58;28.75;;;;;;;14.90;52.81;102624.47;5013773;28;20033;-84
2023/04/17 10:26:28;;;;;;;26.17;24.30;;;;;;;14.88;53.22;102621.97;5013855;28;20034;-85
2023/04/17 10:28:56;;;;;;;28.95;26.65;;;;;;;14.90;53.06;102619.84;5013426;28;20061;-82
2023/04/17 10:31:32;;;;;;;35.77;30.33;;;;;;;14.93;52.93;102630.28;5013647;28;20080;-79
2023/04/17 10:33:58;;;;;;;34.25;29.17;;;;;;;14.97;52.78;102630.69;5013541;28;20332;-81
2023/04/17 10:36:38;;;;;;;33.70;29.67;;;;;;;14.98;52.91;102628.78;5013329;28;20122;-81
2023/04/17 10:39:49;;;;;;;29.05;26.50;;;;;;;14.99;52.96;102625.00;5013695;28;20029;-81
2023/04/17 10:42:22;;;;;;;31.40;28.30;;;;;;;15.01;53.27;102621.00;4992949;28;20257;-81
2023/04/17 10:44:48;;;;;;;33.45;30.15;;;;;;;15.05;52.84;102626.84;5013375;28;20025;-81
2023/04/17 10:47:14;;;;;;;33.13;30.05;;;;;;;15.06;52.92;102623.88;5013726;28;20033;-82
2023/04/17 10:50:09;;;;;;;32.00;28.60;;;;;;;15.08;52.82;102616.31;5016605;28;20377;-77
2023/04/17 10:52:41;;;;;;;28.85;26.15;;;;;;;15.12;52.55;102622.97;5000704;28;20096;-88
2023/04/17 10:55:17;;;;;;;32.40;29.42;;;;;;;15.14;52.79;102612.69;4999954;28;20037;-85
2023/04/17 10:57:58;;;;;;;25.65;23.75;;;;;;;15.13;53.19;102613.72;5017377;28;20058;-87
2023/04/17 11:00:28;;;;;;;35.35;32.00;;;;;;;15.17;53.10;102608.69;5016901;28;20392;-85
2023/04/17 11:02:53;;;;;;;34.08;30.73;;;;;;;15.21;52.92;102609.03;5016941;28;20048;-85
2023/04/17 11:05:19;;;;;;;33.25;30.15;;;;;;;15.25;52.60;102613.00;4983038;28;20466;-85
2023/04/17 11:07:55;;;;;;;30.50;28.05;;;;;;;15.29;52.65;102608.72;5016675;28;20040;-85